Airfield :
LOGIN :

Register | Disclaimer

   EN    FR    IT 

 










Legend :    VFR   Marginal VFR   IFR   Intensive IFR   Very Intensive IFR
Visi :
Ceiling :
>= 8 km
>= 3000ft
5 to 8 km
1000 to 3000 ft
1500m to 5 km
500 to 1000 ft
800 to 1500m
200 to 500 ft
< 800m
< 200 ft
Symbols :   Thunderstorms  Fog  Heavy snow  Heavy precipitations  Wind > 20 kt
SIGMETs :     Misc.  Thunderstorms  Icing  Turbulence  Mountain Waves  Volcanic Ashes






- Airport Elevation : 39 ft
- IATA code : CTA


LICC - Catania Fontanarossa

CURRENT METAR :
  • 300720Z VRB02KT 8000 -RA BKN050 11/09 Q1011

EXPIRED METARs :
  • 300650Z VRB02KT 8000 -RA BKN050 11/09 Q1011
  • 300620Z 23004KT 190V300 9999 -RA BKN060 11/09 Q1011
  • 300550Z 27005KT 9999 -RA BKN060 11/09 Q1011
  • 300520Z 26005KT 9999 -RA BKN080 11/08 Q1011

TAF TAF LICC
Valid from the 30 at 06:00 until the 31 at 06:00 UTC


300500Z 3006/3106 27008KT 7000 RA SCT020 BKN060
BECMG 3009/3012 NSW



MET'MAP, your aeronautical weather chart ! - Copyright ORBIFLY December 2007 - Disclaimer

ORBIFLY MET'MAP TEAM :

Programming & Development : Alexandra Zaïnal
Concept & original design : Baudouin d'Aumeries
Assistance for programming : Marc-Olivier Méhu
Technical & hardware support : Manuel Goepfert

Contact : metmap@orbifly.com




SOURCES & CREDITS :

   NOAA